sensor_id;sensor_type;location;lat;lon;timestamp;temperature;humidity
17529;DHT22;8882;53.192;8.184;2023-03-23T05:31:15;10.90;99.90
17529;DHT22;8882;53.192;8.184;2023-03-23T05:33:40;10.90;99.90
17529;DHT22;8882;53.192;8.184;2023-03-23T05:36:06;10.90;99.90
17529;DHT22;8882;53.192;8.184;2023-03-23T05:38:33;10.90;99.90
17529;DHT22;8882;53.192;8.184;2023-03-23T05:40:59;10.80;99.90
17529;DHT22;8882;53.192;8.184;2023-03-23T05:43:28;10.80;99.90
17529;DHT22;8882;53.192;8.184;2023-03-23T05:45:53;10.80;99.90
17529;DHT22;8882;53.192;8.184;2023-03-23T05:48:19;10.80;99.90
17529;DHT22;8882;53.192;8.184;2023-03-23T05:50:45;10.80;99.90
17529;DHT22;8882;53.192;8.184;2023-03-23T05:53:10;10.80;99.90
17529;DHT22;8882;53.192;8.184;2023-03-23T05:55:36;10.80;99.90
17529;DHT22;8882;53.192;8.184;2023-03-23T05:58:01;10.90;99.90
17529;DHT22;8882;53.192;8.184;2023-03-23T06:00:27;11.00;99.90
17529;DHT22;8882;53.192;8.184;2023-03-23T06:02:56;11.00;99.90
17529;DHT22;8882;53.192;8.184;2023-03-23T06:05:22;10.90;99.90
17529;DHT22;8882;53.192;8.184;2023-03-23T06:07:47;11.00;99.90
17529;DHT22;8882;53.192;8.184;2023-03-23T06:10:13;11.00;99.90
17529;DHT22;8882;53.192;8.184;2023-03-23T06:12:39;11.00;99.90
17529;DHT22;8882;53.192;8.184;2023-03-23T06:15:07;11.10;99.90
17529;DHT22;8882;53.192;8.184;2023-03-23T06:17:33;11.20;99.90
17529;DHT22;8882;53.192;8.184;2023-03-23T06:19:59;11.20;99.90
17529;DHT22;8882;53.192;8.184;2023-03-23T06:22:25;11.10;99.90
17529;DHT22;8882;53.192;8.184;2023-03-23T06:24:52;11.10;99.90
17529;DHT22;8882;53.192;8.184;2023-03-23T06:27:17;11.00;99.90
17529;DHT22;8882;53.192;8.184;2023-03-23T06:29:43;11.00;99.90
17529;DHT22;8882;53.192;8.184;2023-03-23T06:32:12;10.90;99.90
17529;DHT22;8882;53.192;8.184;2023-03-23T06:34:38;10.80;99.90
17529;DHT22;8882;53.192;8.184;2023-03-23T06:37:04;10.80;99.90
17529;DHT22;8882;53.192;8.184;2023-03-23T06:39:30;10.80;99.90
17529;DHT22;8882;53.192;8.184;2023-03-23T06:41:57;10.80;99.90
17529;DHT22;8882;53.192;8.184;2023-03-23T06:44:22;10.80;99.90
17529;DHT22;8882;53.192;8.184;2023-03-23T06:46:48;10.80;99.90
17529;DHT22;8882;53.192;8.184;2023-03-23T06:49:14;10.70;99.90
17529;DHT22;8882;53.192;8.184;2023-03-23T06:51:39;10.70;99.90
17529;DHT22;8882;53.192;8.184;2023-03-23T06:54:05;10.60;99.90
17529;DHT22;8882;53.192;8.184;2023-03-23T06:56:31;10.60;99.90
17529;DHT22;8882;53.192;8.184;2023-03-23T06:58:56;10.60;99.90
17529;DHT22;8882;53.192;8.184;2023-03-23T07:01:22;10.60;99.90
17529;DHT22;8882;53.192;8.184;2023-03-23T07:03:48;10.50;99.90
17529;DHT22;8882;53.192;8.184;2023-03-23T07:06:14;10.50;99.90
17529;DHT22;8882;53.192;8.184;2023-03-23T07:08:40;10.40;99.90
17529;DHT22;8882;53.192;8.184;2023-03-23T07:11:06;10.40;99.90
17529;DHT22;8882;53.192;8.184;2023-03-23T07:13:31;10.40;99.90
17529;DHT22;8882;53.192;8.184;2023-03-23T07:15:57;10.40;99.90
17529;DHT22;8882;53.192;8.184;2023-03-23T07:18:23;10.30;99.90
17529;DHT22;8882;53.192;8.184;2023-03-23T07:20:50;10.30;99.90
17529;DHT22;8882;53.192;8.184;2023-03-23T07:23:17;10.30;99.90
17529;DHT22;8882;53.192;8.184;2023-03-23T07:25:43;10.30;99.90
17529;DHT22;8882;53.192;8.184;2023-03-23T07:28:10;10.30;99.90
17529;DHT22;8882;53.192;8.184;2023-03-23T07:30:36;10.30;99.90
17529;DHT22;8882;53.192;8.184;2023-03-23T07:33:05;10.30;99.90
17529;DHT22;8882;53.192;8.184;2023-03-23T07:35:31;10.30;99.90
17529;DHT22;8882;53.192;8.184;2023-03-23T07:37:57;10.30;99.90
17529;DHT22;8882;53.192;8.184;2023-03-23T07:40:22;10.30;99.90
17529;DHT22;8882;53.192;8.184;2023-03-23T07:42:53;10.30;99.90
17529;DHT22;8882;53.192;8.184;2023-03-23T07:45:19;10.30;99.90
17529;DHT22;8882;53.192;8.184;2023-03-23T07:47:44;10.30;99.90
17529;DHT22;8882;53.192;8.184;2023-03-23T07:50:10;10.40;99.90
17529;DHT22;8882;53.192;8.184;2023-03-23T07:52:37;10.40;99.90
17529;DHT22;8882;53.192;8.184;2023-03-23T07:55:05;10.40;99.90
17529;DHT22;8882;53.192;8.184;2023-03-23T07:57:31;10.50;99.90
17529;DHT22;8882;53.192;8.184;2023-03-23T07:59:58;10.50;99.90
17529;DHT22;8882;53.192;8.184;2023-03-23T08:02:24;10.60;99.90
17529;DHT22;8882;53.192;8.184;2023-03-23T08:04:50;10.70;99.90
17529;DHT22;8882;53.192;8.184;2023-03-23T08:07:17;10.80;99.90
17529;DHT22;8882;53.192;8.184;2023-03-23T08:09:44;10.90;99.90
17529;DHT22;8882;53.192;8.184;2023-03-23T08:12:10;10.90;99.90
17529;DHT22;8882;53.192;8.184;2023-03-23T08:14:36;11.00;99.90
17529;DHT22;8882;53.192;8.184;2023-03-23T08:17:02;11.10;99.90
17529;DHT22;8882;53.192;8.184;2023-03-23T08:19:27;11.10;99.90
17529;DHT22;8882;53.192;8.184;2023-03-23T08:21:53;11.20;99.90
17529;DHT22;8882;53.192;8.184;2023-03-23T08:24:19;11.20;99.90
17529;DHT22;8882;53.192;8.184;2023-03-23T08:26:44;11.20;99.90
17529;DHT22;8882;53.192;8.184;2023-03-23T08:29:10;11.30;99.90
17529;DHT22;8882;53.192;8.184;2023-03-23T08:31:35;11.20;99.90
17529;DHT22;8882;53.192;8.184;2023-03-23T08:34:03;11.30;99.90
17529;DHT22;8882;53.192;8.184;2023-03-23T08:36:30;11.30;99.90
17529;DHT22;8882;53.192;8.184;2023-03-23T08:38:57;11.30;99.90
17529;DHT22;8882;53.192;8.184;2023-03-23T08:41:23;11.40;99.90
17529;DHT22;8882;53.192;8.184;2023-03-23T08:43:49;11.40;99.90
17529;DHT22;8882;53.192;8.184;2023-03-23T08:46:15;11.50;99.90
17529;DHT22;8882;53.192;8.184;2023-03-23T08:48:41;11.50;99.90
17529;DHT22;8882;53.192;8.184;2023-03-23T08:51:06;11.60;99.90
17529;DHT22;8882;53.192;8.184;2023-03-23T08:53:32;11.80;99.90
17529;DHT22;8882;53.192;8.184;2023-03-23T08:56:09;11.80;99.90
17529;DHT22;8882;53.192;8.184;2023-03-23T08:58:36;11.90;99.90
17529;DHT22;8882;53.192;8.184;2023-03-23T09:01:03;11.90;99.90
17529;DHT22;8882;53.192;8.184;2023-03-23T09:03:28;12.00;99.90
17529;DHT22;8882;53.192;8.184;2023-03-23T09:05:59;12.00;99.90
17529;DHT22;8882;53.192;8.184;2023-03-23T09:08:25;12.10;99.90
17529;DHT22;8882;53.192;8.184;2023-03-23T09:10:51;12.10;99.90
17529;DHT22;8882;53.192;8.184;2023-03-23T09:13:17;12.10;99.90
17529;DHT22;8882;53.192;8.184;2023-03-23T09:15:42;12.20;99.90
17529;DHT22;8882;53.192;8.184;2023-03-23T09:18:08;12.30;99.90
17529;DHT22;8882;53.192;8.184;2023-03-23T09:20:33;12.30;99.90
17529;DHT22;8882;53.192;8.184;2023-03-23T09:22:59;12.30;99.90
17529;DHT22;8882;53.192;8.184;2023-03-23T09:25:26;12.30;99.90
17529;DHT22;8882;53.192;8.184;2023-03-23T09:27:55;12.40;99.90
17529;DHT22;8882;53.192;8.184;2023-03-23T09:30:32;12.40;99.90
17529;DHT22;8882;53.192;8.184;2023-03-23T09:33:00;12.40;99.90
17529;DHT22;8882;53.192;8.184;2023-03-23T09:35:29;12.40;99.90
17529;DHT22;8882;53.192;8.184;2023-03-23T09:37:57;12.40;99.90
17529;DHT22;8882;53.192;8.184;2023-03-23T09:40:47;12.40;99.90
17529;DHT22;8882;53.192;8.184;2023-03-23T09:46:22;12.50;99.90
17529;DHT22;8882;53.192;8.184;2023-03-23T09:48:59;12.60;99.90
17529;DHT22;8882;53.192;8.184;2023-03-23T09:54:28;12.60;99.90
17529;DHT22;8882;53.192;8.184;2023-03-23T09:56:57;12.70;99.90
17529;DHT22;8882;53.192;8.184;2023-03-23T09:59:45;12.60;99.90
17529;DHT22;8882;53.192;8.184;2023-03-23T10:02:13;12.50;99.90
17529;DHT22;8882;53.192;8.184;2023-03-23T10:04:51;12.50;99.90
17529;DHT22;8882;53.192;8.184;2023-03-23T10:07:22;12.50;99.90
17529;DHT22;8882;53.192;8.184;2023-03-23T10:09:54;12.50;99.90
17529;DHT22;8882;53.192;8.184;2023-03-23T10:15:53;12.50;99.90
17529;DHT22;8882;53.192;8.184;2023-03-23T10:18:12;12.40;99.90
17529;DHT22;8882;53.192;8.184;2023-03-23T10:20:59;12.40;99.90
17529;DHT22;8882;53.192;8.184;2023-03-23T10:26:12;12.40;99.90
17529;DHT22;8882;53.192;8.184;2023-03-23T10:28:44;12.40;99.90
17529;DHT22;8882;53.192;8.184;2023-03-23T10:31:26;12.50;99.90
17529;DHT22;8882;53.192;8.184;2023-03-23T10:33:57;12.50;99.90
17529;DHT22;8882;53.192;8.184;2023-03-23T10:36:35;12.60;99.90
17529;DHT22;8882;53.192;8.184;2023-03-23T10:41:33;12.50;99.90
17529;DHT22;8882;53.192;8.184;2023-03-23T10:44:10;12.50;99.90
17529;DHT22;8882;53.192;8.184;2023-03-23T10:49:19;12.50;99.90
17529;DHT22;8882;53.192;8.184;2023-03-23T10:51:57;12.50;99.90
17529;DHT22;8882;53.192;8.184;2023-03-23T10:54:27;12.50;99.90
17529;DHT22;8882;53.192;8.184;2023-03-23T10:56:53;12.60;99.90
17529;DHT22;8882;53.192;8.184;2023-03-23T10:59:26;12.60;99.90
17529;DHT22;8882;53.192;8.184;2023-03-23T11:01:54;12.50;99.90
17529;DHT22;8882;53.192;8.184;2023-03-23T11:04:22;12.40;99.90
17529;DHT22;8882;53.192;8.184;2023-03-23T11:06:51;12.40;99.90
17529;DHT22;8882;53.192;8.184;2023-03-23T11:09:22;12.50;99.90
17529;DHT22;8882;53.192;8.184;2023-03-23T11:11:58;12.60;99.90
17529;DHT22;8882;53.192;8.184;2023-03-23T11:16:55;12.80;99.90
17529;DHT22;8882;53.192;8.184;2023-03-23T11:19:26;12.90;99.90
17529;DHT22;8882;53.192;8.184;2023-03-23T11:21:58;13.20;99.90
17529;DHT22;8882;53.192;8.184;2023-03-23T11:24:27;13.20;99.90
17529;DHT22;8882;53.192;8.184;2023-03-23T11:26:56;13.30;99.90
17529;DHT22;8882;53.192;8.184;2023-03-23T11:29:25;13.50;99.90
17529;DHT22;8882;53.192;8.184;2023-03-23T11:32:05;13.60;99.90
17529;DHT22;8882;53.192;8.184;2023-03-23T11:34:33;13.70;99.90
17529;DHT22;8882;53.192;8.184;2023-03-23T11:37:07;13.70;99.90
17529;DHT22;8882;53.192;8.184;2023-03-23T11:39:58;13.50;99.90
17529;DHT22;8882;53.192;8.184;2023-03-23T11:42:26;13.60;99.90
17529;DHT22;8882;53.192;8.184;2023-03-23T11:45:30;13.60;99.90
17529;DHT22;8882;53.192;8.184;2023-03-23T11:54:15;13.80;99.90
17529;DHT22;8882;53.192;8.184;2023-03-23T11:56:44;13.90;99.90
17529;DHT22;8882;53.192;8.184;2023-03-23T11:59:15;13.90;99.90
17529;DHT22;8882;53.192;8.184;2023-03-23T12:01:56;14.10;99.90
17529;DHT22;8882;53.192;8.184;2023-03-23T12:04:39;14.30;99.90
17529;DHT22;8882;53.192;8.184;2023-03-23T12:07:40;14.40;99.90
17529;DHT22;8882;53.192;8.184;2023-03-23T12:10:25;14.50;99.90
17529;DHT22;8882;53.192;8.184;2023-03-23T12:13:09;14.70;99.90
17529;DHT22;8882;53.192;8.184;2023-03-23T12:15:58;14.80;99.90
17529;DHT22;8882;53.192;8.184;2023-03-23T12:18:43;14.90;99.90
17529;DHT22;8882;53.192;8.184;2023-03-23T12:21:42;14.90;99.90
17529;DHT22;8882;53.192;8.184;2023-03-23T12:24:15;14.70;99.90
17529;DHT22;8882;53.192;8.184;2023-03-23T12:27:05;14.10;99.90
17529;DHT22;8882;53.192;8.184;2023-03-23T12:29:55;13.40;99.90
17529;DHT22;8882;53.192;8.184;2023-03-23T12:32:31;12.40;99.90
17529;DHT22;8882;53.192;8.184;2023-03-23T12:35:20;12.10;99.90
17529;DHT22;8882;53.192;8.184;2023-03-23T12:43:21;12.10;99.90
17529;DHT22;8882;53.192;8.184;2023-03-23T12:48:40;12.10;99.90
17529;DHT22;8882;53.192;8.184;2023-03-23T12:51:21;12.20;99.90
17529;DHT22;8882;53.192;8.184;2023-03-23T12:54:05;12.30;99.90
17529;DHT22;8882;53.192;8.184;2023-03-23T12:56:54;12.50;99.90
17529;DHT22;8882;53.192;8.184;2023-03-23T12:59:59;12.80;99.90
17529;DHT22;8882;53.192;8.184;2023-03-23T13:02:30;13.10;99.90
17529;DHT22;8882;53.192;8.184;2023-03-23T13:05:49;13.30;99.90
17529;DHT22;8882;53.192;8.184;2023-03-23T13:10:26;13.70;99.90
17529;DHT22;8882;53.192;8.184;2023-03-23T13:12:53;13.80;99.90
17529;DHT22;8882;53.192;8.184;2023-03-23T13:24:19;14.30;99.90
17529;DHT22;8882;53.192;8.184;2023-03-23T13:26:49;14.40;99.90
17529;DHT22;8882;53.192;8.184;2023-03-23T13:29:18;14.50;99.90
17529;DHT22;8882;53.192;8.184;2023-03-23T13:31:46;14.50;99.90
17529;DHT22;8882;53.192;8.184;2023-03-23T13:36:56;14.50;99.90
17529;DHT22;8882;53.192;8.184;2023-03-23T13:39:28;14.40;99.90
17529;DHT22;8882;53.192;8.184;2023-03-23T13:48:18;14.50;99.90
17529;DHT22;8882;53.192;8.184;2023-03-23T13:50:56;14.60;99.90
17529;DHT22;8882;53.192;8.184;2023-03-23T13:56:04;14.50;99.90
17529;DHT22;8882;53.192;8.184;2023-03-23T13:58:30;14.50;99.90
17529;DHT22;8882;53.192;8.184;2023-03-23T14:03:43;14.30;99.90
17529;DHT22;8882;53.192;8.184;2023-03-23T14:06:17;14.30;99.90
17529;DHT22;8882;53.192;8.184;2023-03-23T14:08:45;14.30;99.90
17529;DHT22;8882;53.192;8.184;2023-03-23T14:11:14;14.30;99.90
17529;DHT22;8882;53.192;8.184;2023-03-23T14:16:24;14.30;99.90
17529;DHT22;8882;53.192;8.184;2023-03-23T14:18:57;14.00;99.90
17529;DHT22;8882;53.192;8.184;2023-03-23T14:21:48;14.00;99.90
17529;DHT22;8882;53.192;8.184;2023-03-23T14:24:29;13.90;99.90
17529;DHT22;8882;53.192;8.184;2023-03-23T14:27:09;13.80;99.90
17529;DHT22;8882;53.192;8.184;2023-03-23T14:29:36;13.60;99.90
17529;DHT22;8882;53.192;8.184;2023-03-23T14:32:02;13.30;99.90
17529;DHT22;8882;53.192;8.184;2023-03-23T14:34:30;13.20;99.90
17529;DHT22;8882;53.192;8.184;2023-03-23T14:36:57;13.10;99.90
17529;DHT22;8882;53.192;8.184;2023-03-23T14:39:29;13.00;99.90
17529;DHT22;8882;53.192;8.184;2023-03-23T14:42:04;13.00;99.90
17529;DHT22;8882;53.192;8.184;2023-03-23T14:44:31;13.00;99.90
17529;DHT22;8882;53.192;8.184;2023-03-23T14:47:02;13.00;99.90
17529;DHT22;8882;53.192;8.184;2023-03-23T14:49:38;13.00;99.90
17529;DHT22;8882;53.192;8.184;2023-03-23T14:52:15;13.00;99.90
17529;DHT22;8882;53.192;8.184;2023-03-23T14:54:42;13.20;99.90
17529;DHT22;8882;53.192;8.184;2023-03-23T14:59:46;13.20;99.90
17529;DHT22;8882;53.192;8.184;2023-03-23T15:02:20;13.30;99.90
17529;DHT22;8882;53.192;8.184;2023-03-23T15:04:49;13.40;99.90
17529;DHT22;8882;53.192;8.184;2023-03-23T15:07:16;13.30;99.90
17529;DHT22;8882;53.192;8.184;2023-03-23T15:09:44;13.30;99.90
17529;DHT22;8882;53.192;8.184;2023-03-23T15:12:23;13.20;99.90
17529;DHT22;8882;53.192;8.184;2023-03-23T15:14:55;13.20;99.90
17529;DHT22;8882;53.192;8.184;2023-03-23T15:17:27;13.10;99.90
17529;DHT22;8882;53.192;8.184;2023-03-23T15:19:54;13.10;99.90
17529;DHT22;8882;53.192;8.184;2023-03-23T15:24:45;13.00;99.90
17529;DHT22;8882;53.192;8.184;2023-03-23T15:27:31;13.00;99.90
17529;DHT22;8882;53.192;8.184;2023-03-23T15:29:59;13.00;99.90
17529;DHT22;8882;53.192;8.184;2023-03-23T15:32:31;13.00;99.90
17529;DHT22;8882;53.192;8.184;2023-03-23T15:35:09;13.00;99.90
17529;DHT22;8882;53.192;8.184;2023-03-23T15:37:42;13.00;99.90
17529;DHT22;8882;53.192;8.184;2023-03-23T15:40:24;12.90;99.90
17529;DHT22;8882;53.192;8.184;2023-03-23T15:48:22;12.80;99.90
17529;DHT22;8882;53.192;8.184;2023-03-23T15:50:48;12.80;99.90
17529;DHT22;8882;53.192;8.184;2023-03-23T15:55:52;12.90;99.90
17529;DHT22;8882;53.192;8.184;2023-03-23T15:58:17;12.90;99.90
17529;DHT22;8882;53.192;8.184;2023-03-23T16:00:44;13.00;99.90
17529;DHT22;8882;53.192;8.184;2023-03-23T16:03:23;13.00;99.90
17529;DHT22;8882;53.192;8.184;2023-03-23T16:05:52;13.00;99.90
17529;DHT22;8882;53.192;8.184;2023-03-23T16:08:18;13.10;99.90
17529;DHT22;8882;53.192;8.184;2023-03-23T16:10:43;13.00;99.90
17529;DHT22;8882;53.192;8.184;2023-03-23T16:13:09;13.10;99.90
17529;DHT22;8882;53.192;8.184;2023-03-23T16:15:34;13.20;99.90
17529;DHT22;8882;53.192;8.184;2023-03-23T16:18:00;13.10;99.90
17529;DHT22;8882;53.192;8.184;2023-03-23T16:20:28;13.10;99.90
17529;DHT22;8882;53.192;8.184;2023-03-23T16:22:53;13.00;99.90
17529;DHT22;8882;53.192;8.184;2023-03-23T16:25:19;12.90;99.90
17529;DHT22;8882;53.192;8.184;2023-03-23T16:27:45;12.80;99.90
17529;DHT22;8882;53.192;8.184;2023-03-23T16:30:22;12.70;99.90
17529;DHT22;8882;53.192;8.184;2023-03-23T16:32:48;12.70;99.90
17529;DHT22;8882;53.192;8.184;2023-03-23T16:35:14;12.70;99.90
17529;DHT22;8882;53.192;8.184;2023-03-23T16:37:47;12.60;99.90
17529;DHT22;8882;53.192;8.184;2023-03-23T16:40:14;12.70;99.90
17529;DHT22;8882;53.192;8.184;2023-03-23T16:42:40;12.60;99.90
17529;DHT22;8882;53.192;8.184;2023-03-23T16:45:06;12.60;99.90
17529;DHT22;8882;53.192;8.184;2023-03-23T16:47:32;12.60;99.90
17529;DHT22;8882;53.192;8.184;2023-03-23T16:49:57;12.50;99.90
17529;DHT22;8882;53.192;8.184;2023-03-23T16:52:23;12.50;99.90
17529;DHT22;8882;53.192;8.184;2023-03-23T16:54:49;12.50;99.90
17529;DHT22;8882;53.192;8.184;2023-03-23T16:57:15;12.50;99.90
17529;DHT22;8882;53.192;8.184;2023-03-23T16:59:41;12.40;99.90
17529;DHT22;8882;53.192;8.184;2023-03-23T17:02:08;12.30;99.90
17529;DHT22;8882;53.192;8.184;2023-03-23T17:04:34;12.30;99.90
17529;DHT22;8882;53.192;8.184;2023-03-23T17:06:59;12.30;99.90
17529;DHT22;8882;53.192;8.184;2023-03-23T17:09:25;12.30;99.90
17529;DHT22;8882;53.192;8.184;2023-03-23T17:11:51;12.20;99.90
17529;DHT22;8882;53.192;8.184;2023-03-23T17:14:17;12.20;99.90
17529;DHT22;8882;53.192;8.184;2023-03-23T17:16:43;12.10;99.90
17529;DHT22;8882;53.192;8.184;2023-03-23T17:19:08;12.10;99.90
17529;DHT22;8882;53.192;8.184;2023-03-23T17:21:34;12.10;99.90
17529;DHT22;8882;53.192;8.184;2023-03-23T17:24:00;12.00;99.90
17529;DHT22;8882;53.192;8.184;2023-03-23T17:26:26;12.00;99.90
17529;DHT22;8882;53.192;8.184;2023-03-23T17:28:51;11.90;99.90
17529;DHT22;8882;53.192;8.184;2023-03-23T17:31:17;11.90;99.90
17529;DHT22;8882;53.192;8.184;2023-03-23T17:33:42;11.90;99.90
17529;DHT22;8882;53.192;8.184;2023-03-23T17:36:08;11.80;99.90
17529;DHT22;8882;53.192;8.184;2023-03-23T17:38:33;11.70;99.90
17529;DHT22;8882;53.192;8.184;2023-03-23T17:41:01;11.70;99.90
17529;DHT22;8882;53.192;8.184;2023-03-23T17:43:28;11.70;99.90
17529;DHT22;8882;53.192;8.184;2023-03-23T17:45:54;11.60;99.90
17529;DHT22;8882;53.192;8.184;2023-03-23T17:48:19;11.60;99.90
17529;DHT22;8882;53.192;8.184;2023-03-23T17:50:46;11.60;99.90
17529;DHT22;8882;53.192;8.184;2023-03-23T17:53:12;11.60;99.90
17529;DHT22;8882;53.192;8.184;2023-03-23T17:55:38;11.50;99.90
17529;DHT22;8882;53.192;8.184;2023-03-23T17:58:05;11.50;99.90
17529;DHT22;8882;53.192;8.184;2023-03-23T18:00:31;11.50;99.90
17529;DHT22;8882;53.192;8.184;2023-03-23T18:02:57;11.50;99.90
17529;DHT22;8882;53.192;8.184;2023-03-23T18:05:22;11.50;99.90
17529;DHT22;8882;53.192;8.184;2023-03-23T18:07:49;11.50;99.90
17529;DHT22;8882;53.192;8.184;2023-03-23T18:10:15;11.50;99.90
17529;DHT22;8882;53.192;8.184;2023-03-23T18:12:40;11.50;99.90
17529;DHT22;8882;53.192;8.184;2023-03-23T18:15:07;11.50;99.90
17529;DHT22;8882;53.192;8.184;2023-03-23T18:17:33;11.50;99.90
17529;DHT22;8882;53.192;8.184;2023-03-23T18:19:58;11.50;99.90
17529;DHT22;8882;53.192;8.184;2023-03-23T18:22:24;11.50;99.90
17529;DHT22;8882;53.192;8.184;2023-03-23T18:24:50;11.60;99.90
17529;DHT22;8882;53.192;8.184;2023-03-23T18:27:15;11.60;99.90
17529;DHT22;8882;53.192;8.184;2023-03-23T18:29:41;11.60;99.90
17529;DHT22;8882;53.192;8.184;2023-03-23T18:32:07;11.60;99.90
17529;DHT22;8882;53.192;8.184;2023-03-23T18:34:33;11.50;99.90
17529;DHT22;8882;53.192;8.184;2023-03-23T18:36:59;11.50;99.90
17529;DHT22;8882;53.192;8.184;2023-03-23T18:39:25;11.50;99.90
17529;DHT22;8882;53.192;8.184;2023-03-23T18:41:51;11.50;99.90
17529;DHT22;8882;53.192;8.184;2023-03-23T18:44:17;11.40;99.90
17529;DHT22;8882;53.192;8.184;2023-03-23T18:46:42;11.40;99.90
17529;DHT22;8882;53.192;8.184;2023-03-23T18:49:08;11.40;99.90
17529;DHT22;8882;53.192;8.184;2023-03-23T18:51:33;11.40;99.90
17529;DHT22;8882;53.192;8.184;2023-03-23T18:53:59;11.40;99.90
17529;DHT22;8882;53.192;8.184;2023-03-23T18:56:25;11.40;99.90
17529;DHT22;8882;53.192;8.184;2023-03-23T18:58:51;11.40;99.90
17529;DHT22;8882;53.192;8.184;2023-03-23T19:01:17;11.40;99.90
17529;DHT22;8882;53.192;8.184;2023-03-23T19:03:44;11.40;99.90
17529;DHT22;8882;53.192;8.184;2023-03-23T19:06:18;11.30;99.90
17529;DHT22;8882;53.192;8.184;2023-03-23T19:08:45;11.30;99.90
17529;DHT22;8882;53.192;8.184;2023-03-23T19:11:11;11.30;99.90
17529;DHT22;8882;53.192;8.184;2023-03-23T19:13:36;11.30;99.90
17529;DHT22;8882;53.192;8.184;2023-03-23T19:16:02;11.30;99.90
17529;DHT22;8882;53.192;8.184;2023-03-23T19:18:28;11.30;99.90
17529;DHT22;8882;53.192;8.184;2023-03-23T19:20:54;11.40;99.90
17529;DHT22;8882;53.192;8.184;2023-03-23T19:23:21;11.40;99.90
17529;DHT22;8882;53.192;8.184;2023-03-23T19:25:47;11.30;99.90
17529;DHT22;8882;53.192;8.184;2023-03-23T19:28:13;11.30;99.90
17529;DHT22;8882;53.192;8.184;2023-03-23T19:30:43;11.30;99.90
17529;DHT22;8882;53.192;8.184;2023-03-23T19:33:10;11.30;99.90
17529;DHT22;8882;53.192;8.184;2023-03-23T19:35:35;11.30;99.90
17529;DHT22;8882;53.192;8.184;2023-03-23T19:38:01;11.30;99.90
17529;DHT22;8882;53.192;8.184;2023-03-23T19:40:26;11.20;99.90
17529;DHT22;8882;53.192;8.184;2023-03-23T19:42:52;11.20;99.90
17529;DHT22;8882;53.192;8.184;2023-03-23T19:45:17;11.20;99.90
17529;DHT22;8882;53.192;8.184;2023-03-23T19:47:43;11.20;99.90
17529;DHT22;8882;53.192;8.184;2023-03-23T19:50:08;11.10;99.90
17529;DHT22;8882;53.192;8.184;2023-03-23T19:52:34;11.20;99.90
17529;DHT22;8882;53.192;8.184;2023-03-23T19:54:59;11.10;99.90
17529;DHT22;8882;53.192;8.184;2023-03-23T19:57:25;11.10;99.90
17529;DHT22;8882;53.192;8.184;2023-03-23T19:59:52;11.10;99.90
17529;DHT22;8882;53.192;8.184;2023-03-23T20:02:17;11.10;99.90
17529;DHT22;8882;53.192;8.184;2023-03-23T20:04:43;11.10;99.90
17529;DHT22;8882;53.192;8.184;2023-03-23T20:07:09;11.20;99.90
17529;DHT22;8882;53.192;8.184;2023-03-23T20:09:35;11.10;99.90
17529;DHT22;8882;53.192;8.184;2023-03-23T20:12:00;11.10;99.90
17529;DHT22;8882;53.192;8.184;2023-03-23T20:14:26;11.20;99.90
17529;DHT22;8882;53.192;8.184;2023-03-23T20:16:51;11.10;99.90
17529;DHT22;8882;53.192;8.184;2023-03-23T20:19:17;11.20;99.90
17529;DHT22;8882;53.192;8.184;2023-03-23T20:21:42;11.20;99.90
17529;DHT22;8882;53.192;8.184;2023-03-23T20:24:09;11.10;99.90
17529;DHT22;8882;53.192;8.184;2023-03-23T20:26:38;11.10;99.90
17529;DHT22;8882;53.192;8.184;2023-03-23T20:29:04;11.20;99.90
17529;DHT22;8882;53.192;8.184;2023-03-23T20:31:32;11.20;99.90
17529;DHT22;8882;53.192;8.184;2023-03-23T20:34:00;11.20;99.90
17529;DHT22;8882;53.192;8.184;2023-03-23T20:36:36;11.20;99.90
17529;DHT22;8882;53.192;8.184;2023-03-23T20:39:11;11.30;99.90
17529;DHT22;8882;53.192;8.184;2023-03-23T20:41:37;11.30;99.90
17529;DHT22;8882;53.192;8.184;2023-03-23T20:44:05;11.30;99.90
17529;DHT22;8882;53.192;8.184;2023-03-23T20:46:32;11.20;99.90
17529;DHT22;8882;53.192;8.184;2023-03-23T20:48:58;11.20;99.90
17529;DHT22;8882;53.192;8.184;2023-03-23T20:51:23;11.30;99.90
17529;DHT22;8882;53.192;8.184;2023-03-23T20:53:49;11.30;99.90
17529;DHT22;8882;53.192;8.184;2023-03-23T20:56:15;11.30;99.90
17529;DHT22;8882;53.192;8.184;2023-03-23T20:58:41;11.30;99.90
17529;DHT22;8882;53.192;8.184;2023-03-23T21:01:07;11.30;99.90
17529;DHT22;8882;53.192;8.184;2023-03-23T21:03:35;11.30;99.90
17529;DHT22;8882;53.192;8.184;2023-03-23T21:06:01;11.30;99.90
17529;DHT22;8882;53.192;8.184;2023-03-23T21:08:34;11.30;99.90
17529;DHT22;8882;53.192;8.184;2023-03-23T21:11:01;11.30;99.90
17529;DHT22;8882;53.192;8.184;2023-03-23T21:13:27;11.30;99.90
17529;DHT22;8882;53.192;8.184;2023-03-23T21:15:53;11.30;99.90
17529;DHT22;8882;53.192;8.184;2023-03-23T21:18:19;11.30;99.90
17529;DHT22;8882;53.192;8.184;2023-03-23T21:20:45;11.30;99.90
17529;DHT22;8882;53.192;8.184;2023-03-23T21:23:10;11.30;99.90
17529;DHT22;8882;53.192;8.184;2023-03-23T21:25:40;11.30;99.90
17529;DHT22;8882;53.192;8.184;2023-03-23T21:28:09;11.30;99.90
17529;DHT22;8882;53.192;8.184;2023-03-23T21:30:35;11.30;99.90
17529;DHT22;8882;53.192;8.184;2023-03-23T21:33:00;11.30;99.90
17529;DHT22;8882;53.192;8.184;2023-03-23T21:35:26;11.30;99.90
17529;DHT22;8882;53.192;8.184;2023-03-23T21:37:51;11.30;99.90
17529;DHT22;8882;53.192;8.184;2023-03-23T21:40:18;11.20;99.90
17529;DHT22;8882;53.192;8.184;2023-03-23T21:42:46;11.30;99.90
17529;DHT22;8882;53.192;8.184;2023-03-23T21:45:14;11.20;99.90
17529;DHT22;8882;53.192;8.184;2023-03-23T21:47:45;11.20;99.90
17529;DHT22;8882;53.192;8.184;2023-03-23T21:50:11;11.20;99.90
17529;DHT22;8882;53.192;8.184;2023-03-23T21:52:38;11.20;99.90
17529;DHT22;8882;53.192;8.184;2023-03-23T21:55:06;11.20;99.90
17529;DHT22;8882;53.192;8.184;2023-03-23T21:57:31;11.20;99.90
17529;DHT22;8882;53.192;8.184;2023-03-23T21:59:58;11.20;99.90
